sensor_id;sensor_type;location;lat;lon;timestamp;temperature;humidity
15455;DHT22;21057;51.024;7.540;2023-09-30T00:00:58;14.50;99.90
15455;DHT22;21057;51.024;7.540;2023-09-30T00:03:19;14.60;99.90
15455;DHT22;21057;51.024;7.540;2023-09-30T00:05:47;14.40;99.90
15455;DHT22;21057;51.024;7.540;2023-09-30T00:08:17;14.40;99.90
15455;DHT22;21057;51.024;7.540;2023-09-30T00:10:48;14.40;99.90
15455;DHT22;21057;51.024;7.540;2023-09-30T00:13:24;14.30;99.90
15455;DHT22;21057;51.024;7.540;2023-09-30T00:16:14;14.30;99.90
15455;DHT22;21057;51.024;7.540;2023-09-30T00:18:53;14.20;99.90
15455;DHT22;21057;51.024;7.540;2023-09-30T00:21:29;14.20;99.90
15455;DHT22;21057;51.024;7.540;2023-09-30T00:24:11;14.20;99.90
15455;DHT22;21057;51.024;7.540;2023-09-30T00:26:49;14.10;99.90
15455;DHT22;21057;51.024;7.540;2023-09-30T00:29:23;14.00;99.90
15455;DHT22;21057;51.024;7.540;2023-09-30T00:31:57;13.90;99.90
15455;DHT22;21057;51.024;7.540;2023-09-30T00:34:49;13.80;99.90
15455;DHT22;21057;51.024;7.540;2023-09-30T00:37:25;13.70;99.90
15455;DHT22;21057;51.024;7.540;2023-09-30T00:39:57;13.60;99.90
15455;DHT22;21057;51.024;7.540;2023-09-30T00:42:52;13.50;99.90
15455;DHT22;21057;51.024;7.540;2023-09-30T00:45:23;13.60;99.90
15455;DHT22;21057;51.024;7.540;2023-09-30T00:47:52;13.60;99.90
15455;DHT22;21057;51.024;7.540;2023-09-30T00:50:21;13.60;99.90
15455;DHT22;21057;51.024;7.540;2023-09-30T00:53:00;13.70;99.90
15455;DHT22;21057;51.024;7.540;2023-09-30T00:55:36;13.70;99.90
15455;DHT22;21057;51.024;7.540;2023-09-30T00:58:12;13.80;99.90
15455;DHT22;21057;51.024;7.540;2023-09-30T01:00:54;13.70;99.90
15455;DHT22;21057;51.024;7.540;2023-09-30T01:03:37;13.70;99.90
15455;DHT22;21057;51.024;7.540;2023-09-30T01:06:15;13.70;99.90
15455;DHT22;21057;51.024;7.540;2023-09-30T01:08:47;13.60;99.90
15455;DHT22;21057;51.024;7.540;2023-09-30T01:11:16;13.50;99.90
15455;DHT22;21057;51.024;7.540;2023-09-30T01:13:49;13.50;99.90
15455;DHT22;21057;51.024;7.540;2023-09-30T01:16:21;13.40;99.90
15455;DHT22;21057;51.024;7.540;2023-09-30T01:19:02;13.40;99.90
15455;DHT22;21057;51.024;7.540;2023-09-30T01:21:36;13.50;99.90
15455;DHT22;21057;51.024;7.540;2023-09-30T01:24:17;13.50;99.90
15455;DHT22;21057;51.024;7.540;2023-09-30T01:26:49;13.60;99.90
15455;DHT22;21057;51.024;7.540;2023-09-30T01:29:21;13.50;99.90
15455;DHT22;21057;51.024;7.540;2023-09-30T01:31:50;13.50;99.90
15455;DHT22;21057;51.024;7.540;2023-09-30T01:34:27;13.50;99.90
15455;DHT22;21057;51.024;7.540;2023-09-30T01:36:57;13.50;99.90
15455;DHT22;21057;51.024;7.540;2023-09-30T01:39:37;13.60;99.90
15455;DHT22;21057;51.024;7.540;2023-09-30T01:42:15;13.60;99.90
15455;DHT22;21057;51.024;7.540;2023-09-30T01:44:44;13.60;99.90
15455;DHT22;21057;51.024;7.540;2023-09-30T01:47:22;13.70;99.90
15455;DHT22;21057;51.024;7.540;2023-09-30T01:49:56;13.80;99.90
15455;DHT22;21057;51.024;7.540;2023-09-30T01:52:35;13.90;99.90
15455;DHT22;21057;51.024;7.540;2023-09-30T01:55:09;13.90;99.90
15455;DHT22;21057;51.024;7.540;2023-09-30T01:57:37;13.70;99.90
15455;DHT22;21057;51.024;7.540;2023-09-30T02:00:10;13.70;99.90
15455;DHT22;21057;51.024;7.540;2023-09-30T02:03:03;13.60;99.90
15455;DHT22;21057;51.024;7.540;2023-09-30T02:05:52;13.70;99.90
15455;DHT22;21057;51.024;7.540;2023-09-30T02:08:27;13.70;99.90
15455;DHT22;21057;51.024;7.540;2023-09-30T02:11:04;13.60;99.90
15455;DHT22;21057;51.024;7.540;2023-09-30T02:13:42;13.50;99.90
15455;DHT22;21057;51.024;7.540;2023-09-30T02:16:19;13.40;99.90
15455;DHT22;21057;51.024;7.540;2023-09-30T02:18:56;13.30;99.90
15455;DHT22;21057;51.024;7.540;2023-09-30T02:21:34;13.40;99.90
15455;DHT22;21057;51.024;7.540;2023-09-30T02:24:11;13.30;99.90
15455;DHT22;21057;51.024;7.540;2023-09-30T02:26:48;13.30;99.90
15455;DHT22;21057;51.024;7.540;2023-09-30T02:29:17;13.20;99.90
15455;DHT22;21057;51.024;7.540;2023-09-30T02:31:50;13.10;99.90
15455;DHT22;21057;51.024;7.540;2023-09-30T02:34:41;13.00;99.90
15455;DHT22;21057;51.024;7.540;2023-09-30T02:37:15;13.00;99.90
15455;DHT22;21057;51.024;7.540;2023-09-30T02:42:52;12.90;99.90
15455;DHT22;21057;51.024;7.540;2023-09-30T02:45:29;12.80;99.90
15455;DHT22;21057;51.024;7.540;2023-09-30T02:48:01;12.80;99.90
15455;DHT22;21057;51.024;7.540;2023-09-30T02:50:28;12.80;99.90
15455;DHT22;21057;51.024;7.540;2023-09-30T02:53:04;12.70;99.90
15455;DHT22;21057;51.024;7.540;2023-09-30T02:55:37;12.80;99.90
15455;DHT22;21057;51.024;7.540;2023-09-30T02:58:15;12.70;99.90
15455;DHT22;21057;51.024;7.540;2023-09-30T03:00:50;12.70;99.90
15455;DHT22;21057;51.024;7.540;2023-09-30T03:03:20;12.60;99.90
15455;DHT22;21057;51.024;7.540;2023-09-30T03:06:09;12.70;99.90
15455;DHT22;21057;51.024;7.540;2023-09-30T03:09:00;12.60;99.90
15455;DHT22;21057;51.024;7.540;2023-09-30T03:11:39;12.70;99.90
15455;DHT22;21057;51.024;7.540;2023-09-30T03:14:26;12.60;99.90
15455;DHT22;21057;51.024;7.540;2023-09-30T03:17:07;12.60;99.90
15455;DHT22;21057;51.024;7.540;2023-09-30T03:19:45;12.60;99.90
15455;DHT22;21057;51.024;7.540;2023-09-30T03:22:30;12.60;99.90
15455;DHT22;21057;51.024;7.540;2023-09-30T03:25:03;12.60;99.90
15455;DHT22;21057;51.024;7.540;2023-09-30T03:27:46;12.60;99.90
15455;DHT22;21057;51.024;7.540;2023-09-30T03:30:55;12.70;99.90
15455;DHT22;21057;51.024;7.540;2023-09-30T03:33:34;12.60;99.90
15455;DHT22;21057;51.024;7.540;2023-09-30T03:36:15;12.70;99.90
15455;DHT22;21057;51.024;7.540;2023-09-30T03:38:47;12.70;99.90
15455;DHT22;21057;51.024;7.540;2023-09-30T03:41:27;12.60;99.90
15455;DHT22;21057;51.024;7.540;2023-09-30T03:44:05;12.60;99.90
15455;DHT22;21057;51.024;7.540;2023-09-30T03:46:35;12.70;99.90
15455;DHT22;21057;51.024;7.540;2023-09-30T03:49:08;12.70;99.90
15455;DHT22;21057;51.024;7.540;2023-09-30T03:51:49;12.70;99.90
15455;DHT22;21057;51.024;7.540;2023-09-30T03:54:27;12.70;99.90
15455;DHT22;21057;51.024;7.540;2023-09-30T03:57:26;12.70;99.90
15455;DHT22;21057;51.024;7.540;2023-09-30T04:03:23;12.80;99.90
15455;DHT22;21057;51.024;7.540;2023-09-30T04:06:17;12.70;99.90
15455;DHT22;21057;51.024;7.540;2023-09-30T04:09:05;12.80;99.90
15455;DHT22;21057;51.024;7.540;2023-09-30T04:11:45;12.80;99.90
15455;DHT22;21057;51.024;7.540;2023-09-30T04:14:17;12.80;99.90
15455;DHT22;21057;51.024;7.540;2023-09-30T04:17:03;12.80;99.90
15455;DHT22;21057;51.024;7.540;2023-09-30T04:19:50;12.80;99.90
15455;DHT22;21057;51.024;7.540;2023-09-30T04:22:28;12.90;99.90
15455;DHT22;21057;51.024;7.540;2023-09-30T04:25:32;12.90;99.90
15455;DHT22;21057;51.024;7.540;2023-09-30T04:28:24;12.90;99.90
15455;DHT22;21057;51.024;7.540;2023-09-30T04:31:16;12.90;99.90
15455;DHT22;21057;51.024;7.540;2023-09-30T04:33:53;12.80;99.90
15455;DHT22;21057;51.024;7.540;2023-09-30T04:36:45;12.80;99.90
15455;DHT22;21057;51.024;7.540;2023-09-30T04:39:16;12.90;99.90
15455;DHT22;21057;51.024;7.540;2023-09-30T04:41:58;12.80;99.90
15455;DHT22;21057;51.024;7.540;2023-09-30T04:44:58;12.80;99.90
15455;DHT22;21057;51.024;7.540;2023-09-30T04:51:13;12.80;99.90
15455;DHT22;21057;51.024;7.540;2023-09-30T04:54:07;12.70;99.90
15455;DHT22;21057;51.024;7.540;2023-09-30T04:56:50;12.80;99.90
15455;DHT22;21057;51.024;7.540;2023-09-30T04:59:31;12.80;99.90
15455;DHT22;21057;51.024;7.540;2023-09-30T05:05:13;13.00;99.90
15455;DHT22;21057;51.024;7.540;2023-09-30T05:07:57;13.00;99.90
15455;DHT22;21057;51.024;7.540;2023-09-30T05:10:32;13.20;99.90
15455;DHT22;21057;51.024;7.540;2023-09-30T05:13:05;13.20;99.90
15455;DHT22;21057;51.024;7.540;2023-09-30T05:15:42;13.20;99.90
15455;DHT22;21057;51.024;7.540;2023-09-30T05:18:42;13.10;99.90
15455;DHT22;21057;51.024;7.540;2023-09-30T05:21:42;13.00;99.90
15455;DHT22;21057;51.024;7.540;2023-09-30T05:27:59;12.90;99.90
15455;DHT22;21057;51.024;7.540;2023-09-30T05:31:06;12.90;99.90
15455;DHT22;21057;51.024;7.540;2023-09-30T05:33:58;12.90;99.90
15455;DHT22;21057;51.024;7.540;2023-09-30T05:36:51;12.90;99.90
15455;DHT22;21057;51.024;7.540;2023-09-30T05:39:41;12.90;99.90
15455;DHT22;21057;51.024;7.540;2023-09-30T05:42:33;12.90;99.90
15455;DHT22;21057;51.024;7.540;2023-09-30T05:45:21;13.00;99.90
15455;DHT22;21057;51.024;7.540;2023-09-30T05:48:02;12.90;99.90
15455;DHT22;21057;51.024;7.540;2023-09-30T05:50:48;13.00;99.90
15455;DHT22;21057;51.024;7.540;2023-09-30T05:53:49;13.00;99.90
15455;DHT22;21057;51.024;7.540;2023-09-30T05:56:38;13.00;99.90
15455;DHT22;21057;51.024;7.540;2023-09-30T05:59:34;13.00;99.90
15455;DHT22;21057;51.024;7.540;2023-09-30T06:02:34;13.10;99.90
15455;DHT22;21057;51.024;7.540;2023-09-30T06:08:26;13.10;99.90
15455;DHT22;21057;51.024;7.540;2023-09-30T06:11:45;13.30;99.90
15455;DHT22;21057;51.024;7.540;2023-09-30T06:14:17;13.20;99.90
15455;DHT22;21057;51.024;7.540;2023-09-30T06:16:50;13.30;99.90
15455;DHT22;21057;51.024;7.540;2023-09-30T06:19:20;13.50;99.90
15455;DHT22;21057;51.024;7.540;2023-09-30T06:21:58;13.40;99.90
15455;DHT22;21057;51.024;7.540;2023-09-30T06:24:34;13.40;99.90
15455;DHT22;21057;51.024;7.540;2023-09-30T06:27:22;13.30;99.90
15455;DHT22;21057;51.024;7.540;2023-09-30T06:29:59;13.30;99.90
15455;DHT22;21057;51.024;7.540;2023-09-30T06:32:42;13.30;99.90
15455;DHT22;21057;51.024;7.540;2023-09-30T06:38:41;13.50;99.90
15455;DHT22;21057;51.024;7.540;2023-09-30T06:41:38;13.40;99.90
15455;DHT22;21057;51.024;7.540;2023-09-30T06:44:31;13.40;99.90
15455;DHT22;21057;51.024;7.540;2023-09-30T06:47:20;13.40;99.90
15455;DHT22;21057;51.024;7.540;2023-09-30T06:50:31;13.40;99.90
15455;DHT22;21057;51.024;7.540;2023-09-30T06:53:29;13.50;99.90
15455;DHT22;21057;51.024;7.540;2023-09-30T06:56:46;13.50;99.90
15455;DHT22;21057;51.024;7.540;2023-09-30T06:59:41;13.70;99.90
15455;DHT22;21057;51.024;7.540;2023-09-30T07:02:13;14.00;99.90
15455;DHT22;21057;51.024;7.540;2023-09-30T07:04:55;14.10;99.90
15455;DHT22;21057;51.024;7.540;2023-09-30T07:12:01;13.90;99.90
15455;DHT22;21057;51.024;7.540;2023-09-30T07:17:38;14.10;99.90
15455;DHT22;21057;51.024;7.540;2023-09-30T07:20:08;13.90;99.90
15455;DHT22;21057;51.024;7.540;2023-09-30T07:22:35;13.80;99.90
15455;DHT22;21057;51.024;7.540;2023-09-30T07:25:03;13.80;99.90
15455;DHT22;21057;51.024;7.540;2023-09-30T07:27:39;14.00;99.90
15455;DHT22;21057;51.024;7.540;2023-09-30T07:30:07;14.20;99.90
15455;DHT22;21057;51.024;7.540;2023-09-30T07:32:35;14.30;99.90
15455;DHT22;21057;51.024;7.540;2023-09-30T07:35:07;14.40;99.90
15455;DHT22;21057;51.024;7.540;2023-09-30T07:37:34;14.40;99.90
15455;DHT22;21057;51.024;7.540;2023-09-30T07:40:04;14.30;99.90
15455;DHT22;21057;51.024;7.540;2023-09-30T07:42:34;14.10;99.90
15455;DHT22;21057;51.024;7.540;2023-09-30T07:45:02;14.30;99.90
15455;DHT22;21057;51.024;7.540;2023-09-30T07:47:32;14.30;99.90
15455;DHT22;21057;51.024;7.540;2023-09-30T07:49:59;14.40;99.90
15455;DHT22;21057;51.024;7.540;2023-09-30T07:52:33;14.60;99.90
15455;DHT22;21057;51.024;7.540;2023-09-30T07:55:00;14.80;99.90
15455;DHT22;21057;51.024;7.540;2023-09-30T07:57:30;14.70;99.90
15455;DHT22;21057;51.024;7.540;2023-09-30T07:59:57;14.60;99.90
15455;DHT22;21057;51.024;7.540;2023-09-30T08:02:31;14.70;99.90
15455;DHT22;21057;51.024;7.540;2023-09-30T08:05:05;14.90;99.90
15455;DHT22;21057;51.024;7.540;2023-09-30T08:07:34;15.10;99.90
15455;DHT22;21057;51.024;7.540;2023-09-30T08:10:06;14.80;99.90
15455;DHT22;21057;51.024;7.540;2023-09-30T08:12:54;14.90;99.90
15455;DHT22;21057;51.024;7.540;2023-09-30T08:15:23;15.20;99.90
15455;DHT22;21057;51.024;7.540;2023-09-30T08:17:58;15.10;99.90
15455;DHT22;21057;51.024;7.540;2023-09-30T08:20:25;15.30;99.90
15455;DHT22;21057;51.024;7.540;2023-09-30T08:22:55;15.40;99.90
15455;DHT22;21057;51.024;7.540;2023-09-30T08:25:25;15.30;99.90
15455;DHT22;21057;51.024;7.540;2023-09-30T08:27:54;15.40;99.90
15455;DHT22;21057;51.024;7.540;2023-09-30T08:30:23;15.50;99.90
15455;DHT22;21057;51.024;7.540;2023-09-30T08:32:58;15.50;99.90
15455;DHT22;21057;51.024;7.540;2023-09-30T08:35:38;15.50;99.90
15455;DHT22;21057;51.024;7.540;2023-09-30T08:38:07;15.60;99.90
15455;DHT22;21057;51.024;7.540;2023-09-30T08:40:38;15.40;99.90
15455;DHT22;21057;51.024;7.540;2023-09-30T08:43:06;15.40;99.90
15455;DHT22;21057;51.024;7.540;2023-09-30T08:45:40;15.20;99.90
15455;DHT22;21057;51.024;7.540;2023-09-30T08:48:09;15.40;99.90
15455;DHT22;21057;51.024;7.540;2023-09-30T08:50:39;15.40;99.90
15455;DHT22;21057;51.024;7.540;2023-09-30T08:53:11;15.60;99.90
15455;DHT22;21057;51.024;7.540;2023-09-30T08:55:41;15.90;99.90
15455;DHT22;21057;51.024;7.540;2023-09-30T08:58:25;16.10;99.90
15455;DHT22;21057;51.024;7.540;2023-09-30T09:00:56;16.00;99.90
15455;DHT22;21057;51.024;7.540;2023-09-30T09:03:23;16.20;99.90
15455;DHT22;21057;51.024;7.540;2023-09-30T09:06:00;16.30;99.90
15455;DHT22;21057;51.024;7.540;2023-09-30T09:08:29;16.30;99.90
15455;DHT22;21057;51.024;7.540;2023-09-30T09:10:58;16.30;99.90
15455;DHT22;21057;51.024;7.540;2023-09-30T09:13:48;16.40;99.90
15455;DHT22;21057;51.024;7.540;2023-09-30T09:16:20;16.40;99.90
15455;DHT22;21057;51.024;7.540;2023-09-30T09:18:50;16.40;99.90
15455;DHT22;21057;51.024;7.540;2023-09-30T09:21:23;16.50;99.90
15455;DHT22;21057;51.024;7.540;2023-09-30T09:23:57;16.60;99.90
15455;DHT22;21057;51.024;7.540;2023-09-30T09:26:33;16.80;99.90
15455;DHT22;21057;51.024;7.540;2023-09-30T09:29:02;16.90;99.90
15455;DHT22;21057;51.024;7.540;2023-09-30T09:31:32;16.90;99.90
15455;DHT22;21057;51.024;7.540;2023-09-30T09:34:02;17.10;99.90
15455;DHT22;21057;51.024;7.540;2023-09-30T09:36:47;17.30;99.90
15455;DHT22;21057;51.024;7.540;2023-09-30T09:39:30;17.60;99.90
15455;DHT22;21057;51.024;7.540;2023-09-30T09:41:59;17.30;99.90
15455;DHT22;21057;51.024;7.540;2023-09-30T09:44:27;17.20;99.90
15455;DHT22;21057;51.024;7.540;2023-09-30T09:46:54;17.30;99.90
15455;DHT22;21057;51.024;7.540;2023-09-30T09:49:24;17.30;99.90
15455;DHT22;21057;51.024;7.540;2023-09-30T09:51:55;17.30;99.90
15455;DHT22;21057;51.024;7.540;2023-09-30T09:54:24;17.50;99.90
15455;DHT22;21057;51.024;7.540;2023-09-30T09:56:56;17.60;99.90
15455;DHT22;21057;51.024;7.540;2023-09-30T09:59:25;17.50;99.90
15455;DHT22;21057;51.024;7.540;2023-09-30T10:01:54;17.50;99.90
15455;DHT22;21057;51.024;7.540;2023-09-30T10:04:22;17.50;99.90
15455;DHT22;21057;51.024;7.540;2023-09-30T10:06:52;17.70;99.90
15455;DHT22;21057;51.024;7.540;2023-09-30T10:09:22;18.50;99.90
15455;DHT22;21057;51.024;7.540;2023-09-30T10:12:03;19.80;99.90
15455;DHT22;21057;51.024;7.540;2023-09-30T10:14:31;20.60;99.90
15455;DHT22;21057;51.024;7.540;2023-09-30T10:17:01;20.50;99.90
15455;DHT22;21057;51.024;7.540;2023-09-30T10:19:36;20.00;99.90
15455;DHT22;21057;51.024;7.540;2023-09-30T10:22:24;19.50;99.90
15455;DHT22;21057;51.024;7.540;2023-09-30T10:24:55;19.10;99.90
15455;DHT22;21057;51.024;7.540;2023-09-30T10:27:34;18.80;99.90
15455;DHT22;21057;51.024;7.540;2023-09-30T10:30:12;19.40;99.90
15455;DHT22;21057;51.024;7.540;2023-09-30T10:33:23;20.30;99.90
15455;DHT22;21057;51.024;7.540;2023-09-30T10:36:57;21.20;99.90
15455;DHT22;21057;51.024;7.540;2023-09-30T10:39:52;22.10;99.90
15455;DHT22;21057;51.024;7.540;2023-09-30T10:42:47;23.60;99.90
15455;DHT22;21057;51.024;7.540;2023-09-30T10:45:44;23.40;99.90
15455;DHT22;21057;51.024;7.540;2023-09-30T10:48:37;23.20;99.90
15455;DHT22;21057;51.024;7.540;2023-09-30T10:51:15;23.10;99.90
15455;DHT22;21057;51.024;7.540;2023-09-30T10:53:48;23.20;99.90
15455;DHT22;21057;51.024;7.540;2023-09-30T10:56:17;23.20;99.90
15455;DHT22;21057;51.024;7.540;2023-09-30T10:58:47;22.70;99.90
15455;DHT22;21057;51.024;7.540;2023-09-30T11:01:17;22.40;99.90
15455;DHT22;21057;51.024;7.540;2023-09-30T11:03:45;21.90;99.90
15455;DHT22;21057;51.024;7.540;2023-09-30T11:06:13;21.50;99.90
15455;DHT22;21057;51.024;7.540;2023-09-30T11:08:45;20.80;99.90
15455;DHT22;21057;51.024;7.540;2023-09-30T11:11:12;20.20;99.90
15455;DHT22;21057;51.024;7.540;2023-09-30T11:13:40;20.00;99.90
15455;DHT22;21057;51.024;7.540;2023-09-30T11:16:09;19.80;99.90
15455;DHT22;21057;51.024;7.540;2023-09-30T11:18:36;20.20;99.90
15455;DHT22;21057;51.024;7.540;2023-09-30T11:21:06;21.10;99.90
15455;DHT22;21057;51.024;7.540;2023-09-30T11:23:33;21.30;99.90
15455;DHT22;21057;51.024;7.540;2023-09-30T11:26:00;22.10;99.90
15455;DHT22;21057;51.024;7.540;2023-09-30T11:28:39;22.70;99.90
15455;DHT22;21057;51.024;7.540;2023-09-30T11:31:10;22.70;99.90
15455;DHT22;21057;51.024;7.540;2023-09-30T11:33:48;23.10;99.90
15455;DHT22;21057;51.024;7.540;2023-09-30T11:36:16;23.00;99.90
15455;DHT22;21057;51.024;7.540;2023-09-30T11:38:45;22.40;99.90
15455;DHT22;21057;51.024;7.540;2023-09-30T11:41:13;22.10;99.90
15455;DHT22;21057;51.024;7.540;2023-09-30T11:43:58;21.40;99.90
15455;DHT22;21057;51.024;7.540;2023-09-30T11:46:27;20.60;99.90
15455;DHT22;21057;51.024;7.540;2023-09-30T11:49:08;20.40;99.90
15455;DHT22;21057;51.024;7.540;2023-09-30T11:51:43;19.90;99.90
15455;DHT22;21057;51.024;7.540;2023-09-30T11:54:11;19.40;99.90
15455;DHT22;21057;51.024;7.540;2023-09-30T12:03:21;19.20;99.90
15455;DHT22;21057;51.024;7.540;2023-09-30T12:05:48;19.10;99.90
15455;DHT22;21057;51.024;7.540;2023-09-30T12:08:14;19.20;99.90
15455;DHT22;21057;51.024;7.540;2023-09-30T12:10:41;19.20;99.90
15455;DHT22;21057;51.024;7.540;2023-09-30T12:13:09;19.20;99.90
15455;DHT22;21057;51.024;7.540;2023-09-30T12:15:37;19.30;99.90
15455;DHT22;21057;51.024;7.540;2023-09-30T12:18:04;19.50;99.90
15455;DHT22;21057;51.024;7.540;2023-09-30T12:20:33;20.20;99.90
15455;DHT22;21057;51.024;7.540;2023-09-30T12:23:00;20.40;99.90
15455;DHT22;21057;51.024;7.540;2023-09-30T12:25:27;20.30;99.90
15455;DHT22;21057;51.024;7.540;2023-09-30T12:27:55;20.30;99.90
15455;DHT22;21057;51.024;7.540;2023-09-30T12:30:22;20.10;99.90
15455;DHT22;21057;51.024;7.540;2023-09-30T12:32:48;19.90;99.90
15455;DHT22;21057;51.024;7.540;2023-09-30T12:35:15;19.80;99.90
15455;DHT22;21057;51.024;7.540;2023-09-30T12:37:43;19.80;99.90
15455;DHT22;21057;51.024;7.540;2023-09-30T12:40:11;19.60;99.90
15455;DHT22;21057;51.024;7.540;2023-09-30T12:42:44;19.70;99.90
15455;DHT22;21057;51.024;7.540;2023-09-30T12:52:23;19.60;99.90
15455;DHT22;21057;51.024;7.540;2023-09-30T12:58:17;19.60;99.90
15455;DHT22;21057;51.024;7.540;2023-09-30T13:00:46;19.50;99.90
15455;DHT22;21057;51.024;7.540;2023-09-30T13:03:13;19.50;99.90
15455;DHT22;21057;51.024;7.540;2023-09-30T13:05:44;19.60;99.90
15455;DHT22;21057;51.024;7.540;2023-09-30T13:08:12;19.70;99.90
15455;DHT22;21057;51.024;7.540;2023-09-30T13:10:45;19.60;99.90
15455;DHT22;21057;51.024;7.540;2023-09-30T13:13:19;19.70;99.90
15455;DHT22;21057;51.024;7.540;2023-09-30T13:15:48;19.70;99.90
15455;DHT22;21057;51.024;7.540;2023-09-30T13:18:16;19.60;99.90
15455;DHT22;21057;51.024;7.540;2023-09-30T13:20:43;19.50;99.90
15455;DHT22;21057;51.024;7.540;2023-09-30T13:23:10;19.70;99.90
15455;DHT22;21057;51.024;7.540;2023-09-30T13:25:43;19.70;99.90
15455;DHT22;21057;51.024;7.540;2023-09-30T13:28:10;19.90;99.90
15455;DHT22;21057;51.024;7.540;2023-09-30T13:30:39;20.40;99.90
15455;DHT22;21057;51.024;7.540;2023-09-30T13:33:06;21.20;99.90
15455;DHT22;21057;51.024;7.540;2023-09-30T13:35:33;21.40;99.90
15455;DHT22;21057;51.024;7.540;2023-09-30T13:38:02;22.00;99.90
15455;DHT22;21057;51.024;7.540;2023-09-30T13:40:29;22.50;99.90
15455;DHT22;21057;51.024;7.540;2023-09-30T13:42:56;22.40;99.90
15455;DHT22;21057;51.024;7.540;2023-09-30T13:45:24;22.20;99.90
15455;DHT22;21057;51.024;7.540;2023-09-30T13:47:55;22.30;99.90
15455;DHT22;21057;51.024;7.540;2023-09-30T13:50:24;21.90;99.90
15455;DHT22;21057;51.024;7.540;2023-09-30T13:52:51;21.80;98.90
15455;DHT22;21057;51.024;7.540;2023-09-30T13:55:18;21.70;99.80
15455;DHT22;21057;51.024;7.540;2023-09-30T13:57:45;21.60;99.90
15455;DHT22;21057;51.024;7.540;2023-09-30T14:00:13;21.60;99.90
15455;DHT22;21057;51.024;7.540;2023-09-30T14:02:43;21.50;99.90
15455;DHT22;21057;51.024;7.540;2023-09-30T14:05:11;21.20;99.90
15455;DHT22;21057;51.024;7.540;2023-09-30T14:07:42;20.90;99.90
15455;DHT22;21057;51.024;7.540;2023-09-30T14:10:10;20.60;99.90
15455;DHT22;21057;51.024;7.540;2023-09-30T14:12:37;20.40;99.90
15455;DHT22;21057;51.024;7.540;2023-09-30T14:15:09;20.40;99.90
15455;DHT22;21057;51.024;7.540;2023-09-30T14:17:37;20.30;99.90
15455;DHT22;21057;51.024;7.540;2023-09-30T14:20:15;20.60;99.90
15455;DHT22;21057;51.024;7.540;2023-09-30T14:22:42;21.00;99.90
15455;DHT22;21057;51.024;7.540;2023-09-30T14:25:09;21.20;99.90
15455;DHT22;21057;51.024;7.540;2023-09-30T14:27:38;21.30;99.90
15455;DHT22;21057;51.024;7.540;2023-09-30T14:30:07;21.20;99.90
15455;DHT22;21057;51.024;7.540;2023-09-30T14:32:34;21.30;99.90
15455;DHT22;21057;51.024;7.540;2023-09-30T14:35:01;21.10;99.90
15455;DHT22;21057;51.024;7.540;2023-09-30T14:38:06;21.10;99.90
15455;DHT22;21057;51.024;7.540;2023-09-30T14:40:43;21.20;99.90
15455;DHT22;21057;51.024;7.540;2023-09-30T14:43:14;21.40;99.90
15455;DHT22;21057;51.024;7.540;2023-09-30T14:45:43;21.10;99.90
15455;DHT22;21057;51.024;7.540;2023-09-30T14:48:16;21.10;99.90
15455;DHT22;21057;51.024;7.540;2023-09-30T14:51:10;21.30;99.90
15455;DHT22;21057;51.024;7.540;2023-09-30T14:53:44;21.30;99.90
15455;DHT22;21057;51.024;7.540;2023-09-30T14:56:17;21.50;99.90
15455;DHT22;21057;51.024;7.540;2023-09-30T14:58:49;21.40;99.90
15455;DHT22;21057;51.024;7.540;2023-09-30T15:01:21;21.40;99.90
15455;DHT22;21057;51.024;7.540;2023-09-30T15:03:54;21.20;99.90
15455;DHT22;21057;51.024;7.540;2023-09-30T15:06:54;21.20;99.90
15455;DHT22;21057;51.024;7.540;2023-09-30T15:12:53;20.90;99.90
15455;DHT22;21057;51.024;7.540;2023-09-30T15:16:53;20.80;99.90
15455;DHT22;21057;51.024;7.540;2023-09-30T15:23:15;20.30;99.90
15455;DHT22;21057;51.024;7.540;2023-09-30T15:26:15;20.00;99.90
15455;DHT22;21057;51.024;7.540;2023-09-30T15:28:43;19.80;99.90
15455;DHT22;21057;51.024;7.540;2023-09-30T15:31:10;19.70;99.90
15455;DHT22;21057;51.024;7.540;2023-09-30T15:33:53;19.60;99.90
15455;DHT22;21057;51.024;7.540;2023-09-30T15:36:40;19.40;99.90
15455;DHT22;21057;51.024;7.540;2023-09-30T15:39:21;19.30;99.90
15455;DHT22;21057;51.024;7.540;2023-09-30T15:41:55;19.20;99.90
15455;DHT22;21057;51.024;7.540;2023-09-30T15:44:44;19.20;99.90
15455;DHT22;21057;51.024;7.540;2023-09-30T15:47:16;19.20;99.90
15455;DHT22;21057;51.024;7.540;2023-09-30T15:49:56;19.20;99.90
15455;DHT22;21057;51.024;7.540;2023-09-30T15:52:35;18.90;99.90
15455;DHT22;21057;51.024;7.540;2023-09-30T15:55:11;18.70;99.90
15455;DHT22;21057;51.024;7.540;2023-09-30T15:57:47;18.60;99.90
15455;DHT22;21057;51.024;7.540;2023-09-30T16:00:19;18.60;99.90
15455;DHT22;21057;51.024;7.540;2023-09-30T16:02:54;18.50;99.90
15455;DHT22;21057;51.024;7.540;2023-09-30T16:05:27;18.40;99.90
15455;DHT22;21057;51.024;7.540;2023-09-30T16:07:57;18.40;99.90
15455;DHT22;21057;51.024;7.540;2023-09-30T16:10:32;18.30;99.90
15455;DHT22;21057;51.024;7.540;2023-09-30T16:13:09;18.20;99.90
15455;DHT22;21057;51.024;7.540;2023-09-30T16:15:42;18.00;99.90
15455;DHT22;21057;51.024;7.540;2023-09-30T16:18:14;17.90;99.90
15455;DHT22;21057;51.024;7.540;2023-09-30T16:20:49;17.90;99.90
15455;DHT22;21057;51.024;7.540;2023-09-30T16:23:30;17.80;99.90
15455;DHT22;21057;51.024;7.540;2023-09-30T16:26:03;17.60;99.90
15455;DHT22;21057;51.024;7.540;2023-09-30T16:28:31;17.70;99.90
15455;DHT22;21057;51.024;7.540;2023-09-30T16:31:06;17.50;99.90
15455;DHT22;21057;51.024;7.540;2023-09-30T16:33:46;17.50;99.90
15455;DHT22;21057;51.024;7.540;2023-09-30T16:36:16;17.40;99.90
15455;DHT22;21057;51.024;7.540;2023-09-30T16:41:46;17.20;99.90
15455;DHT22;21057;51.024;7.540;2023-09-30T16:47:49;16.90;99.90
15455;DHT22;21057;51.024;7.540;2023-09-30T16:50:43;16.80;99.90
15455;DHT22;21057;51.024;7.540;2023-09-30T16:53:20;16.80;99.90
15455;DHT22;21057;51.024;7.540;2023-09-30T16:56:29;16.70;99.90
15455;DHT22;21057;51.024;7.540;2023-09-30T16:59:04;16.60;99.90
15455;DHT22;21057;51.024;7.540;2023-09-30T17:02:18;16.60;99.90
15455;DHT22;21057;51.024;7.540;2023-09-30T17:08:33;16.50;99.90
15455;DHT22;21057;51.024;7.540;2023-09-30T17:11:29;16.40;99.90
15455;DHT22;21057;51.024;7.540;2023-09-30T17:14:44;16.20;99.90
15455;DHT22;21057;51.024;7.540;2023-09-30T17:17:15;16.10;99.90
15455;DHT22;21057;51.024;7.540;2023-09-30T17:19:42;16.00;99.90
15455;DHT22;21057;51.024;7.540;2023-09-30T17:22:09;15.90;99.90
15455;DHT22;21057;51.024;7.540;2023-09-30T17:24:37;15.80;99.90
15455;DHT22;21057;51.024;7.540;2023-09-30T17:27:04;15.70;99.90
15455;DHT22;21057;51.024;7.540;2023-09-30T17:29:31;15.60;99.90
15455;DHT22;21057;51.024;7.540;2023-09-30T17:31:58;15.50;99.90
15455;DHT22;21057;51.024;7.540;2023-09-30T17:34:30;15.50;99.90